Time;durP1;ratioP1;P1;durP2;ratioP2;P2;SDS_P1;SDS_P2;PMS_P1;PMS_P2;Temp;Humidity;BMP_temperature;BMP_pressure;BME280_temperature;BME280_humidity;BME280_pressure;Samples;Min_cycle;Max_cycle;Signal;HPM_P1;HPM_P2
2024/01/25 00:02:23;;;;;;;37.10;25.23;;;;;;;;;;6269404;28;24427;-74
2024/01/25 00:05:25;;;;;;;38.83;25.27;;;;;;;;;;6269540;28;24989;-74
2024/01/25 00:08:26;;;;;;;36.95;25.05;;;;;;;;;;6271879;28;24823;-73
2024/01/25 00:11:31;;;;;;;39.38;24.50;;;;;;;;;;6267602;28;25261;-74
2024/01/25 00:14:34;;;;;;;40.78;26.23;;;;;;;;;;6272048;28;24557;-74
2024/01/25 00:17:35;;;;;;;41.17;24.80;;;;;;;;;;6269697;28;24437;-73
2024/01/25 00:20:37;;;;;;;38.30;25.58;;;;;;;;;;6270680;28;24500;-74
2024/01/25 00:23:38;;;;;;;38.40;25.52;;;;;;;;;;6270828;28;24816;-73
2024/01/25 00:26:40;;;;;;;39.88;25.90;;;;;;;;;;6267129;28;24415;-73
2024/01/25 00:29:43;;;;;;;82.53;48.75;;;;;;;;;;6269650;28;24470;-73
2024/01/25 00:32:45;;;;;;;156.02;80.90;;;;;;;;;;6268507;28;24425;-72
2024/01/25 00:35:52;;;;;;;117.00;61.03;;;;;;;;;;6270684;28;24416;-74
2024/01/25 00:38:54;;;;;;;89.63;48.38;;;;;;;;;;6269203;28;24548;-73
2024/01/25 00:41:59;;;;;;;137.00;70.20;;;;;;;;;;6268766;28;24448;-74
2024/01/25 00:45:03;;;;;;;85.60;46.73;;;;;;;;;;6268334;28;24455;-73
2024/01/25 00:48:05;;;;;;;78.38;44.80;;;;;;;;;;6269531;28;24431;-74
2024/01/25 00:51:08;;;;;;;55.83;33.15;;;;;;;;;;6268624;28;24435;-73
2024/01/25 00:54:10;;;;;;;43.53;26.90;;;;;;;;;;6267453;28;24493;-73
2024/01/25 00:57:12;;;;;;;36.70;24.23;;;;;;;;;;6268349;28;24635;-73
2024/01/25 01:00:15;;;;;;;38.47;23.90;;;;;;;;;;6264990;28;24427;-73
2024/01/25 01:03:19;;;;;;;34.67;22.67;;;;;;;;;;6264210;28;24435;-74
2024/01/25 01:06:20;;;;;;;37.45;24.35;;;;;;;;;;6266779;28;24817;-74
2024/01/25 01:09:22;;;;;;;37.25;24.33;;;;;;;;;;6267277;28;24478;-74
2024/01/25 01:12:23;;;;;;;35.05;23.77;;;;;;;;;;6265780;28;24514;-74
2024/01/25 01:15:26;;;;;;;35.72;23.92;;;;;;;;;;6265236;28;24458;-73
2024/01/25 01:18:28;;;;;;;35.15;23.55;;;;;;;;;;6267272;28;24431;-74
2024/01/25 01:21:29;;;;;;;35.88;23.95;;;;;;;;;;6266822;28;24636;-74
2024/01/25 01:24:31;;;;;;;37.33;23.65;;;;;;;;;;6268658;28;24815;-74
2024/01/25 01:27:33;;;;;;;37.70;24.83;;;;;;;;;;6266882;28;24797;-73
2024/01/25 01:30:36;;;;;;;38.78;25.60;;;;;;;;;;6267544;28;24890;-73
2024/01/25 01:33:37;;;;;;;37.17;25.85;;;;;;;;;;6261977;28;24427;-74
2024/01/25 01:36:39;;;;;;;36.87;25.20;;;;;;;;;;6267350;28;24485;-74
2024/01/25 01:39:40;;;;;;;40.40;27.37;;;;;;;;;;6265722;28;24450;-74
2024/01/25 01:42:42;;;;;;;45.17;30.30;;;;;;;;;;6266913;28;24551;-73
2024/01/25 01:45:45;;;;;;;48.67;33.10;;;;;;;;;;6263891;28;24863;-76
2024/01/25 01:48:47;;;;;;;52.63;36.10;;;;;;;;;;6268696;28;24442;-73
2024/01/25 01:51:49;;;;;;;52.63;38.47;;;;;;;;;;6266022;28;24542;-72
2024/01/25 01:54:50;;;;;;;56.75;38.90;;;;;;;;;;6264622;28;24478;-73
2024/01/25 01:57:52;;;;;;;56.15;39.97;;;;;;;;;;6268482;28;24438;-73
2024/01/25 02:00:56;;;;;;;60.83;41.65;;;;;;;;;;6262937;28;24633;-73
2024/01/25 02:03:58;;;;;;;57.90;40.57;;;;;;;;;;6267130;28;24651;-73
2024/01/25 02:06:59;;;;;;;53.38;39.17;;;;;;;;;;6266818;28;24429;-74
2024/01/25 02:10:01;;;;;;;56.22;38.75;;;;;;;;;;6265074;28;24847;-73
2024/01/25 02:13:02;;;;;;;57.20;39.47;;;;;;;;;;6266646;28;24440;-73
2024/01/25 02:16:08;;;;;;;53.07;38.63;;;;;;;;;;6262152;28;24423;-73
2024/01/25 02:19:09;;;;;;;55.03;38.40;;;;;;;;;;6265109;28;24820;-74
2024/01/25 02:22:11;;;;;;;53.55;38.40;;;;;;;;;;6265972;28;24426;-74
2024/01/25 02:25:14;;;;;;;54.33;37.88;;;;;;;;;;6271446;28;24846;-74
2024/01/25 02:28:16;;;;;;;59.47;40.47;;;;;;;;;;6262290;28;24419;-74
2024/01/25 02:31:17;;;;;;;58.97;41.25;;;;;;;;;;6265672;28;24839;-73
2024/01/25 02:34:19;;;;;;;58.08;40.35;;;;;;;;;;6265408;28;24510;-74
2024/01/25 02:37:21;;;;;;;55.75;38.53;;;;;;;;;;6264176;28;24522;-74
2024/01/25 02:40:23;;;;;;;56.10;37.72;;;;;;;;;;6267525;28;24506;-74
2024/01/25 02:43:25;;;;;;;53.97;37.00;;;;;;;;;;6267409;28;24819;-74
2024/01/25 02:46:26;;;;;;;55.38;37.50;;;;;;;;;;6264431;28;24422;-75
2024/01/25 02:49:29;;;;;;;57.92;38.70;;;;;;;;;;6266168;28;24804;-75
2024/01/25 02:52:31;;;;;;;60.40;41.05;;;;;;;;;;6266780;28;24411;-74
2024/01/25 02:55:34;;;;;;;65.57;43.75;;;;;;;;;;6262501;28;24408;-74
2024/01/25 02:58:35;;;;;;;66.80;46.03;;;;;;;;;;6265347;28;24660;-74
2024/01/25 03:01:41;;;;;;;68.80;47.55;;;;;;;;;;6264735;28;24414;-74
2024/01/25 03:04:43;;;;;;;69.63;47.67;;;;;;;;;;6263980;28;24404;-74
2024/01/25 03:07:45;;;;;;;68.75;47.63;;;;;;;;;;6267332;28;24447;-73
2024/01/25 03:10:49;;;;;;;70.28;47.55;;;;;;;;;;6262500;28;24412;-74
2024/01/25 03:13:50;;;;;;;66.93;48.00;;;;;;;;;;6263928;28;24435;-73
2024/01/25 03:16:52;;;;;;;69.47;47.80;;;;;;;;;;6262588;28;24439;-74
2024/01/25 03:19:54;;;;;;;68.53;48.85;;;;;;;;;;6262553;28;24419;-73
2024/01/25 03:22:55;;;;;;;68.43;48.03;;;;;;;;;;6265110;28;24510;-73
2024/01/25 03:25:58;;;;;;;71.63;48.90;;;;;;;;;;6265008;28;24416;-74
2024/01/25 03:29:00;;;;;;;71.45;48.05;;;;;;;;;;6263360;28;24470;-73
2024/01/25 03:32:01;;;;;;;70.25;49.55;;;;;;;;;;6260052;28;24676;-74
2024/01/25 03:35:03;;;;;;;68.70;47.97;;;;;;;;;;6260654;28;24427;-74
2024/01/25 03:38:05;;;;;;;68.72;48.55;;;;;;;;;;6263460;28;24423;-73
2024/01/25 03:41:09;;;;;;;68.38;48.38;;;;;;;;;;6296763;28;25460;-73
2024/01/25 03:44:10;;;;;;;68.70;48.63;;;;;;;;;;6262663;28;24809;-73
2024/01/25 03:47:14;;;;;;;72.23;48.83;;;;;;;;;;6262459;28;24626;-74
2024/01/25 03:50:16;;;;;;;71.43;49.95;;;;;;;;;;6262794;28;24427;-74
2024/01/25 03:53:17;;;;;;;72.13;48.30;;;;;;;;;;6263916;28;24782;-74
2024/01/25 03:56:22;;;;;;;69.95;48.88;;;;;;;;;;6264232;28;24412;-73
2024/01/25 03:59:24;;;;;;;70.63;49.10;;;;;;;;;;6263988;28;24486;-74
2024/01/25 04:02:25;;;;;;;73.15;50.25;;;;;;;;;;6260994;28;24665;-74
2024/01/25 04:05:27;;;;;;;70.38;49.45;;;;;;;;;;6264292;28;24901;-73
2024/01/25 04:08:28;;;;;;;70.32;48.95;;;;;;;;;;6265115;28;24447;-73
2024/01/25 04:11:31;;;;;;;69.55;48.28;;;;;;;;;;6261146;28;24664;-73
2024/01/25 04:14:33;;;;;;;71.38;48.83;;;;;;;;;;6267655;28;24432;-74
2024/01/25 04:17:34;;;;;;;70.15;47.85;;;;;;;;;;6262082;28;24478;-74
2024/01/25 04:20:38;;;;;;;69.87;47.73;;;;;;;;;;6263499;28;24423;-73
2024/01/25 04:23:39;;;;;;;69.57;47.33;;;;;;;;;;6263259;28;24816;-74
2024/01/25 04:26:43;;;;;;;73.13;47.72;;;;;;;;;;6261878;28;24416;-74
2024/01/25 04:29:44;;;;;;;67.57;46.05;;;;;;;;;;6265557;28;24419;-74
2024/01/25 04:32:46;;;;;;;69.47;46.27;;;;;;;;;;6265549;28;24439;-74
2024/01/25 04:35:50;;;;;;;70.63;47.55;;;;;;;;;;6269786;28;24430;-73
2024/01/25 04:38:51;;;;;;;68.88;46.72;;;;;;;;;;6266388;28;24419;-73
2024/01/25 04:41:54;;;;;;;72.28;47.83;;;;;;;;;;6268762;28;24469;-73
2024/01/25 04:44:56;;;;;;;70.97;47.45;;;;;;;;;;6270483;28;24538;-73
2024/01/25 04:47:57;;;;;;;72.28;47.00;;;;;;;;;;6265526;28;24423;-74
2024/01/25 04:50:59;;;;;;;73.07;48.47;;;;;;;;;;6266963;28;24817;-73
2024/01/25 04:54:01;;;;;;;71.22;47.08;;;;;;;;;;6264503;28;24668;-72
2024/01/25 04:57:06;;;;;;;76.40;49.53;;;;;;;;;;6262638;28;24896;-73
2024/01/25 05:00:09;;;;;;;72.15;47.50;;;;;;;;;;6267176;28;24420;-73
2024/01/25 05:03:10;;;;;;;71.95;48.17;;;;;;;;;;6270347;28;24519;-73
2024/01/25 05:06:12;;;;;;;72.80;48.30;;;;;;;;;;6267550;28;24415;-73
2024/01/25 05:09:14;;;;;;;70.63;48.57;;;;;;;;;;6264386;28;24427;-73
2024/01/25 05:12:16;;;;;;;73.82;47.20;;;;;;;;;;6267067;28;24843;-73
2024/01/25 05:15:18;;;;;;;73.47;48.65;;;;;;;;;;6265052;28;24439;-73
2024/01/25 05:18:20;;;;;;;73.75;48.38;;;;;;;;;;6264835;28;24440;-72
2024/01/25 05:21:21;;;;;;;72.28;50.17;;;;;;;;;;6265523;28;25049;-74
2024/01/25 05:24:23;;;;;;;70.55;48.25;;;;;;;;;;6268973;28;24427;-74
2024/01/25 05:27:26;;;;;;;71.07;47.53;;;;;;;;;;6267192;28;24495;-74
2024/01/25 05:30:29;;;;;;;73.10;48.55;;;;;;;;;;6266416;28;24436;-73
2024/01/25 05:33:32;;;;;;;68.43;47.90;;;;;;;;;;6266302;28;24902;-73
2024/01/25 05:36:34;;;;;;;69.35;47.47;;;;;;;;;;6269506;28;25105;-73
2024/01/25 05:39:35;;;;;;;74.65;49.47;;;;;;;;;;6265294;28;24803;-74
2024/01/25 05:42:38;;;;;;;73.20;48.70;;;;;;;;;;6266938;28;24552;-74
2024/01/25 05:45:40;;;;;;;76.47;49.60;;;;;;;;;;6264019;28;24466;-73
2024/01/25 05:48:41;;;;;;;73.40;48.63;;;;;;;;;;6262158;28;24442;-74
2024/01/25 05:51:43;;;;;;;73.10;48.23;;;;;;;;;;6266523;28;24546;-74
2024/01/25 05:54:44;;;;;;;77.40;49.60;;;;;;;;;;6265342;28;25194;-73
2024/01/25 05:57:48;;;;;;;74.17;49.07;;;;;;;;;;6269330;28;24430;-73
2024/01/25 06:00:49;;;;;;;72.25;49.15;;;;;;;;;;6265631;28;24431;-73
2024/01/25 06:03:53;;;;;;;76.50;49.27;;;;;;;;;;6265318;28;24461;-74
2024/01/25 06:06:54;;;;;;;73.57;49.70;;;;;;;;;;6267018;28;24462;-74
2024/01/25 06:09:56;;;;;;;80.68;50.22;;;;;;;;;;6266995;28;24419;-73
2024/01/25 06:12:59;;;;;;;80.03;50.50;;;;;;;;;;6263215;28;24439;-74
2024/01/25 06:16:01;;;;;;;78.15;50.67;;;;;;;;;;6263127;28;24515;-74
2024/01/25 06:19:04;;;;;;;78.93;49.97;;;;;;;;;;6264943;28;24493;-73
2024/01/25 06:22:06;;;;;;;72.20;49.78;;;;;;;;;;6266872;28;24495;-74
2024/01/25 06:25:08;;;;;;;78.40;50.08;;;;;;;;;;6262156;28;24479;-74
2024/01/25 06:28:14;;;;;;;77.40;50.42;;;;;;;;;;6261983;28;24485;-74
2024/01/25 06:31:17;;;;;;;77.45;50.33;;;;;;;;;;6264739;28;24443;-74
2024/01/25 06:34:19;;;;;;;77.97;50.95;;;;;;;;;;6294360;28;24907;-73
2024/01/25 06:37:21;;;;;;;78.90;51.65;;;;;;;;;;6262888;28;24427;-73
2024/01/25 06:40:22;;;;;;;77.40;50.80;;;;;;;;;;6260975;28;24510;-75
2024/01/25 06:43:26;;;;;;;78.13;51.38;;;;;;;;;;6265152;28;24422;-74
2024/01/25 06:46:27;;;;;;;78.85;51.50;;;;;;;;;;6261287;28;24411;-74
2024/01/25 06:49:29;;;;;;;79.25;52.05;;;;;;;;;;6261571;28;24422;-74
2024/01/25 06:52:30;;;;;;;80.40;51.42;;;;;;;;;;6265172;28;24660;-74
2024/01/25 06:55:33;;;;;;;78.57;50.80;;;;;;;;;;6264763;28;24419;-72
2024/01/25 06:58:36;;;;;;;81.50;51.88;;;;;;;;;;6267292;28;24408;-74
2024/01/25 07:01:38;;;;;;;81.23;52.40;;;;;;;;;;6262271;28;24944;-73
2024/01/25 07:04:40;;;;;;;83.40;53.63;;;;;;;;;;6265680;28;24420;-73
2024/01/25 07:07:41;;;;;;;86.57;52.97;;;;;;;;;;6262750;28;24629;-73
2024/01/25 07:10:43;;;;;;;85.05;53.55;;;;;;;;;;6266403;28;24722;-74
2024/01/25 07:13:46;;;;;;;86.60;55.60;;;;;;;;;;6262639;28;24419;-74
2024/01/25 07:16:48;;;;;;;86.05;54.63;;;;;;;;;;6263840;28;24828;-76
2024/01/25 07:19:49;;;;;;;84.70;54.13;;;;;;;;;;6262063;28;24442;-74
2024/01/25 07:22:51;;;;;;;85.55;54.70;;;;;;;;;;6264550;28;24641;-75
2024/01/25 07:25:52;;;;;;;83.45;54.90;;;;;;;;;;6264501;28;24507;-75
2024/01/25 07:28:58;;;;;;;86.78;55.40;;;;;;;;;;6263535;28;24649;-75
2024/01/25 07:32:00;;;;;;;84.35;54.33;;;;;;;;;;6263467;28;24498;-75
2024/01/25 07:35:04;;;;;;;88.10;54.17;;;;;;;;;;6262987;28;24419;-74
2024/01/25 07:38:06;;;;;;;81.00;52.88;;;;;;;;;;6265095;28;24426;-74
2024/01/25 07:41:07;;;;;;;81.03;52.22;;;;;;;;;;6264820;28;24484;-75
2024/01/25 07:44:11;;;;;;;79.63;52.53;;;;;;;;;;6265374;28;24431;-75
2024/01/25 07:47:13;;;;;;;81.97;52.50;;;;;;;;;;6262870;28;24835;-75
2024/01/25 07:50:17;;;;;;;77.00;52.37;;;;;;;;;;6261124;28;24425;-75
2024/01/25 07:53:18;;;;;;;76.40;50.42;;;;;;;;;;6262870;28;24716;-74
2024/01/25 07:56:21;;;;;;;75.90;50.00;;;;;;;;;;6263654;28;24477;-75
2024/01/25 07:59:24;;;;;;;75.65;50.42;;;;;;;;;;6263409;28;24863;-73
2024/01/25 08:02:26;;;;;;;73.03;49.40;;;;;;;;;;6264810;28;24496;-74
2024/01/25 08:05:27;;;;;;;74.90;50.22;;;;;;;;;;6266254;28;24874;-74
2024/01/25 08:08:29;;;;;;;73.93;50.40;;;;;;;;;;6261001;28;24430;-74
2024/01/25 08:11:31;;;;;;;83.00;53.28;;;;;;;;;;6265861;28;24419;-74
2024/01/25 08:14:34;;;;;;;78.20;51.55;;;;;;;;;;6267211;28;24470;-73
2024/01/25 08:17:36;;;;;;;73.68;49.85;;;;;;;;;;6265020;28;24516;-75
2024/01/25 08:20:38;;;;;;;74.07;50.83;;;;;;;;;;6267724;28;24494;-74
2024/01/25 08:23:39;;;;;;;72.03;49.58;;;;;;;;;;6265267;28;24864;-74
2024/01/25 08:26:45;;;;;;;74.93;50.20;;;;;;;;;;6264581;28;24581;-73
2024/01/25 08:29:48;;;;;;;69.93;47.93;;;;;;;;;;6268746;28;24419;-74
2024/01/25 08:32:51;;;;;;;72.53;47.83;;;;;;;;;;6266623;28;24660;-74
2024/01/25 08:35:53;;;;;;;72.68;48.00;;;;;;;;;;6268137;28;24689;-72
2024/01/25 08:38:54;;;;;;;71.43;49.75;;;;;;;;;;6269066;28;24805;-73
2024/01/25 08:42:00;;;;;;;73.93;49.80;;;;;;;;;;6266469;28;24439;-74
2024/01/25 08:45:04;;;;;;;70.55;49.35;;;;;;;;;;6266910;28;24430;-74
2024/01/25 08:48:08;;;;;;;72.75;51.35;;;;;;;;;;6266615;28;25085;-78
2024/01/25 08:51:10;;;;;;;73.25;50.08;;;;;;;;;;6267342;28;24427;-78
2024/01/25 08:54:12;;;;;;;73.97;50.80;;;;;;;;;;6266267;28;24435;-78
2024/01/25 08:57:14;;;;;;;73.75;51.17;;;;;;;;;;6269186;28;24435;-78
2024/01/25 09:00:18;;;;;;;69.33;49.67;;;;;;;;;;6264490;28;24469;-77
2024/01/25 09:03:20;;;;;;;70.93;49.55;;;;;;;;;;6299673;28;24522;-78
2024/01/25 09:06:21;;;;;;;68.50;48.03;;;;;;;;;;6265071;28;24991;-78
2024/01/25 09:09:23;;;;;;;67.85;49.28;;;;;;;;;;6270559;28;24422;-78
2024/01/25 09:12:24;;;;;;;68.22;48.95;;;;;;;;;;6266082;28;24427;-78
2024/01/25 09:15:27;;;;;;;71.57;49.95;;;;;;;;;;6269502;28;24454;-78
2024/01/25 09:18:29;;;;;;;70.60;48.67;;;;;;;;;;6263950;28;24805;-78
2024/01/25 09:21:31;;;;;;;64.53;47.88;;;;;;;;;;6261662;28;24419;-78
2024/01/25 09:24:35;;;;;;;68.35;48.03;;;;;;;;;;6263847;28;24427;-79
2024/01/25 09:27:38;;;;;;;68.60;50.05;;;;;;;;;;6265749;28;24424;-78
2024/01/25 09:30:41;;;;;;;66.90;48.30;;;;;;;;;;6268040;28;24438;-78
2024/01/25 09:33:42;;;;;;;66.97;47.70;;;;;;;;;;6267262;28;24839;-77
2024/01/25 09:36:44;;;;;;;60.42;45.92;;;;;;;;;;6266901;28;24469;-78
2024/01/25 09:39:45;;;;;;;60.80;45.60;;;;;;;;;;6261959;28;24435;-78
2024/01/25 09:42:49;;;;;;;60.00;45.38;;;;;;;;;;6269617;28;24427;-78
2024/01/25 09:45:54;;;;;;;60.70;45.33;;;;;;;;;;6297239;28;24443;-78
2024/01/25 09:48:56;;;;;;;58.60;43.90;;;;;;;;;;6265466;28;24467;-78
2024/01/25 09:51:58;;;;;;;61.55;45.20;;;;;;;;;;6258263;28;24469;-77
2024/01/25 09:54:59;;;;;;;58.33;44.35;;;;;;;;;;6264098;28;24479;-77
2024/01/25 09:58:03;;;;;;;61.63;45.33;;;;;;;;;;6265012;28;24420;-74
2024/01/25 10:01:08;;;;;;;60.90;45.95;;;;;;;;;;6243229;28;24622;-75
2024/01/25 10:04:10;;;;;;;60.25;45.80;;;;;;;;;;6240663;28;24432;-74
2024/01/25 10:07:11;;;;;;;61.30;46.80;;;;;;;;;;6241784;28;24427;-74
2024/01/25 10:10:13;;;;;;;59.00;45.38;;;;;;;;;;6241175;28;24753;-74
2024/01/25 10:13:15;;;;;;;58.25;45.00;;;;;;;;;;6241290;28;24424;-74
2024/01/25 10:16:19;;;;;;;61.05;47.55;;;;;;;;;;6240584;28;24862;-74
2024/01/25 10:19:21;;;;;;;63.80;48.50;;;;;;;;;;6231862;28;24434;-74
2024/01/25 10:22:22;;;;;;;64.78;50.28;;;;;;;;;;6240500;28;24425;-74
2024/01/25 10:25:24;;;;;;;60.28;47.45;;;;;;;;;;6242490;28;25239;-74
2024/01/25 10:28:28;;;;;;;65.47;50.10;;;;;;;;;;6239080;28;24409;-74
2024/01/25 10:31:31;;;;;;;65.15;49.88;;;;;;;;;;6240374;28;24489;-74
2024/01/25 10:34:35;;;;;;;67.28;49.92;;;;;;;;;;6238224;28;24425;-74
2024/01/25 10:37:37;;;;;;;63.70;50.00;;;;;;;;;;6239916;28;24475;-74
2024/01/25 10:40:40;;;;;;;64.38;49.63;;;;;;;;;;6241087;28;24633;-74
2024/01/25 10:43:41;;;;;;;62.42;48.05;;;;;;;;;;6241561;28;24416;-75
2024/01/25 10:46:47;;;;;;;64.97;49.38;;;;;;;;;;6240893;28;24502;-74
2024/01/25 10:49:49;;;;;;;64.50;48.83;;;;;;;;;;6245519;28;24432;-75
2024/01/25 10:52:51;;;;;;;64.10;48.60;;;;;;;;;;6238423;28;24530;-76
2024/01/25 10:55:53;;;;;;;62.97;47.73;;;;;;;;;;6238567;28;24487;-75
2024/01/25 10:58:54;;;;;;;61.70;46.47;;;;;;;;;;6242794;28;24813;-74
2024/01/25 11:01:58;;;;;;;61.00;46.78;;;;;;;;;;6239487;28;24426;-75
2024/01/25 11:05:01;;;;;;;61.13;46.90;;;;;;;;;;6234863;28;24519;-75
2024/01/25 11:08:02;;;;;;;62.40;46.92;;;;;;;;;;6241607;28;24626;-74
2024/01/25 11:11:04;;;;;;;64.10;48.42;;;;;;;;;;6235562;28;24859;-74
2024/01/25 11:14:12;;;;;;;64.50;49.67;;;;;;;;;;6241081;28;24863;-74
2024/01/25 11:17:19;;;;;;;61.47;47.72;;;;;;;;;;6238577;28;24438;-75
2024/01/25 11:20:21;;;;;;;63.92;48.58;;;;;;;;;;6236456;28;24488;-74
2024/01/25 11:23:23;;;;;;;61.25;46.83;;;;;;;;;;6240019;28;24432;-75
2024/01/25 11:26:25;;;;;;;68.50;50.78;;;;;;;;;;6249501;28;24874;-75
2024/01/25 11:29:27;;;;;;;65.70;50.13;;;;;;;;;;6251524;28;24519;-73
2024/01/25 11:32:30;;;;;;;66.00;49.45;;;;;;;;;;6237226;28;24432;-74
2024/01/25 11:35:31;;;;;;;66.75;49.67;;;;;;;;;;6239362;28;24641;-74
2024/01/25 11:38:33;;;;;;;67.53;49.28;;;;;;;;;;6238816;28;24428;-74
2024/01/25 11:41:34;;;;;;;65.78;50.78;;;;;;;;;;6238945;28;24470;-74
2024/01/25 11:44:36;;;;;;;65.03;48.95;;;;;;;;;;6238655;28;24417;-74
2024/01/25 11:47:39;;;;;;;69.90;51.53;;;;;;;;;;6239050;28;24419;-74
2024/01/25 11:50:41;;;;;;;65.57;51.28;;;;;;;;;;6237139;28;24428;-75
2024/01/25 11:53:43;;;;;;;68.07;50.37;;;;;;;;;;6237708;28;24428;-75
2024/01/25 11:56:46;;;;;;;67.10;50.67;;;;;;;;;;6236470;28;24467;-75
2024/01/25 11:59:49;;;;;;;66.18;51.33;;;;;;;;;;6237581;28;24434;-75
2024/01/25 12:02:52;;;;;;;67.30;51.35;;;;;;;;;;6239346;28;24455;-76
2024/01/25 12:05:54;;;;;;;69.82;52.05;;;;;;;;;;6241715;28;24836;-75
2024/01/25 12:08:55;;;;;;;67.68;51.63;;;;;;;;;;6257417;28;24423;-75
2024/01/25 12:11:57;;;;;;;77.07;57.83;;;;;;;;;;6241443;28;24425;-75
2024/01/25 12:14:59;;;;;;;117.45;77.63;;;;;;;;;;6240882;28;24472;-74
2024/01/25 12:18:03;;;;;;;96.75;66.05;;;;;;;;;;6241815;28;24438;-80
2024/01/25 12:21:07;;;;;;;118.83;74.87;;;;;;;;;;6242212;28;24420;-80
2024/01/25 12:24:09;;;;;;;72.70;52.40;;;;;;;;;;6240181;28;24423;-80
2024/01/25 12:27:11;;;;;;;65.82;48.58;;;;;;;;;;6240790;28;24475;-79
2024/01/25 12:30:13;;;;;;;64.22;47.20;;;;;;;;;;6239082;28;24438;-77
2024/01/25 12:33:16;;;;;;;67.38;49.95;;;;;;;;;;6239653;28;24428;-77
2024/01/25 12:36:17;;;;;;;63.38;48.65;;;;;;;;;;6240310;28;24435;-77
2024/01/25 12:39:19;;;;;;;63.85;49.50;;;;;;;;;;6240579;28;24825;-79
2024/01/25 12:42:20;;;;;;;65.57;48.58;;;;;;;;;;6237199;28;24665;-78
2024/01/25 12:45:22;;;;;;;67.10;51.78;;;;;;;;;;6236980;28;24436;-79
2024/01/25 12:48:25;;;;;;;65.07;50.25;;;;;;;;;;6234664;28;24439;-79
2024/01/25 12:51:27;;;;;;;67.10;51.55;;;;;;;;;;6240267;28;24423;-78
2024/01/25 12:54:29;;;;;;;66.25;50.22;;;;;;;;;;6237762;28;24428;-78
2024/01/25 12:57:31;;;;;;;72.35;52.35;;;;;;;;;;6240398;28;24417;-78
2024/01/25 13:00:32;;;;;;;65.40;50.65;;;;;;;;;;6293574;28;24638;-78
2024/01/25 13:03:35;;;;;;;66.60;50.50;;;;;;;;;;6242147;28;24497;-79
2024/01/25 13:06:37;;;;;;;70.88;52.75;;;;;;;;;;6240259;28;24427;-78
2024/01/25 13:09:39;;;;;;;70.85;53.83;;;;;;;;;;6242414;28;24420;-78
2024/01/25 13:12:41;;;;;;;65.18;49.63;;;;;;;;;;6239000;28;24423;-79
2024/01/25 13:15:42;;;;;;;65.00;51.30;;;;;;;;;;6240322;28;24432;-78
2024/01/25 13:18:45;;;;;;;69.25;53.08;;;;;;;;;;6238727;28;24438;-78
2024/01/25 13:21:47;;;;;;;68.40;52.40;;;;;;;;;;6240439;28;24429;-78
2024/01/25 13:24:51;;;;;;;68.78;52.85;;;;;;;;;;6241155;28;24618;-78
2024/01/25 13:27:53;;;;;;;70.90;53.60;;;;;;;;;;6241746;28;24458;-78
2024/01/25 13:30:54;;;;;;;69.40;53.28;;;;;;;;;;6237145;28;24462;-78
2024/01/25 13:33:57;;;;;;;71.30;54.38;;;;;;;;;;6241058;28;24466;-78
2024/01/25 13:36:59;;;;;;;68.28;52.67;;;;;;;;;;6243767;28;24435;-78
2024/01/25 13:40:03;;;;;;;68.22;53.25;;;;;;;;;;6241665;28;24857;-79
2024/01/25 13:43:05;;;;;;;69.38;52.33;;;;;;;;;;6242506;28;24512;-78
2024/01/25 13:46:07;;;;;;;68.63;53.55;;;;;;;;;;6244081;28;24419;-78
2024/01/25 13:49:10;;;;;;;69.63;53.55;;;;;;;;;;6244680;28;24503;-78
2024/01/25 13:52:18;;;;;;;66.72;51.80;;;;;;;;;;6239535;28;24777;-79
2024/01/25 13:55:19;;;;;;;64.40;50.60;;;;;;;;;;6240922;28;24538;-79
2024/01/25 13:58:21;;;;;;;66.68;51.25;;;;;;;;;;6240851;28;24428;-79
2024/01/25 14:01:23;;;;;;;66.75;52.45;;;;;;;;;;6241053;28;24982;-79
2024/01/25 14:04:27;;;;;;;61.75;48.78;;;;;;;;;;6237734;28;24415;-79
2024/01/25 14:07:28;;;;;;;57.63;46.22;;;;;;;;;;6242309;28;24800;-79
2024/01/25 14:10:30;;;;;;;58.53;46.73;;;;;;;;;;6239882;28;24495;-79
2024/01/25 14:13:31;;;;;;;62.78;48.75;;;;;;;;;;6242025;28;24412;-80
2024/01/25 14:16:33;;;;;;;63.70;51.20;;;;;;;;;;6241740;28;24657;-78
2024/01/25 14:19:36;;;;;;;61.72;49.13;;;;;;;;;;6242107;28;24423;-79
2024/01/25 14:22:38;;;;;;;69.32;51.95;;;;;;;;;;6236956;28;24440;-78
2024/01/25 14:25:39;;;;;;;66.80;50.75;;;;;;;;;;6274572;28;24423;-79
2024/01/25 14:28:42;;;;;;;61.42;48.95;;;;;;;;;;6238175;28;24447;-79
2024/01/25 14:31:44;;;;;;;60.83;48.03;;;;;;;;;;6247774;28;24451;-78
2024/01/25 14:34:50;;;;;;;65.63;50.90;;;;;;;;;;6261654;28;24637;-79
2024/01/25 14:37:52;;;;;;;61.92;48.38;;;;;;;;;;6262768;28;24427;-75
2024/01/25 14:40:53;;;;;;;62.70;49.67;;;;;;;;;;6263344;28;24439;-75
2024/01/25 14:43:55;;;;;;;63.22;48.78;;;;;;;;;;6267490;28;24500;-75
2024/01/25 14:46:59;;;;;;;65.13;49.28;;;;;;;;;;6303337;28;24430;-74
2024/01/25 14:50:02;;;;;;;62.88;49.38;;;;;;;;;;6264858;28;24597;-74
2024/01/25 14:53:04;;;;;;;65.88;50.33;;;;;;;;;;6266725;28;24428;-74
2024/01/25 14:56:08;;;;;;;70.13;50.80;;;;;;;;;;6270434;28;24498;-73
2024/01/25 14:59:10;;;;;;;69.80;51.97;;;;;;;;;;6267416;28;24435;-75
2024/01/25 15:02:12;;;;;;;70.07;51.50;;;;;;;;;;6266528;28;24416;-74
2024/01/25 15:05:15;;;;;;;66.88;51.00;;;;;;;;;;6270626;28;24418;-74
2024/01/25 15:08:18;;;;;;;70.38;53.65;;;;;;;;;;6267889;28;24682;-74
2024/01/25 15:11:20;;;;;;;69.20;52.13;;;;;;;;;;6270611;28;24419;-75
2024/01/25 15:14:22;;;;;;;68.47;51.72;;;;;;;;;;6265360;28;24866;-74
2024/01/25 15:17:24;;;;;;;68.32;51.53;;;;;;;;;;6267081;28;24446;-75
2024/01/25 15:20:28;;;;;;;74.18;54.28;;;;;;;;;;6266010;28;24827;-75
2024/01/25 15:23:30;;;;;;;71.38;52.40;;;;;;;;;;6268714;28;24451;-74
2024/01/25 15:26:32;;;;;;;71.78;52.75;;;;;;;;;;6269591;28;24466;-75
2024/01/25 15:29:33;;;;;;;71.10;52.33;;;;;;;;;;6262130;28;24423;-74
2024/01/25 15:32:35;;;;;;;71.07;52.35;;;;;;;;;;6264627;28;24416;-75
2024/01/25 15:35:38;;;;;;;72.57;52.40;;;;;;;;;;6266870;28;24443;-75
2024/01/25 15:38:41;;;;;;;75.20;53.73;;;;;;;;;;6267083;28;24424;-75
2024/01/25 15:41:43;;;;;;;80.55;57.55;;;;;;;;;;6262647;28;24523;-75
2024/01/25 15:44:44;;;;;;;74.25;54.67;;;;;;;;;;6261242;28;25062;-76
2024/01/25 15:47:46;;;;;;;78.30;56.40;;;;;;;;;;6264920;28;24432;-75
2024/01/25 15:50:50;;;;;;;76.10;55.72;;;;;;;;;;6262263;28;24828;-75
2024/01/25 15:53:53;;;;;;;78.32;55.65;;;;;;;;;;6281136;28;24464;-75
2024/01/25 15:56:58;;;;;;;78.43;56.20;;;;;;;;;;6264021;28;24457;-74
2024/01/25 16:00:00;;;;;;;78.03;55.63;;;;;;;;;;6265220;28;24464;-74
2024/01/25 16:03:03;;;;;;;81.82;58.28;;;;;;;;;;6261140;28;24431;-75
2024/01/25 16:06:10;;;;;;;82.38;57.67;;;;;;;;;;6239606;28;24994;-74
2024/01/25 16:09:12;;;;;;;78.60;55.90;;;;;;;;;;6234202;28;24479;-75
2024/01/25 16:12:13;;;;;;;78.88;56.47;;;;;;;;;;6235412;28;24826;-74
2024/01/25 16:15:16;;;;;;;80.22;57.63;;;;;;;;;;6235097;28;24428;-75
2024/01/25 16:18:19;;;;;;;82.40;57.95;;;;;;;;;;6238472;28;24436;-74
2024/01/25 16:21:24;;;;;;;81.82;58.05;;;;;;;;;;6236761;28;24895;-75
2024/01/25 16:24:26;;;;;;;83.53;59.95;;;;;;;;;;6255278;28;24685;-74
2024/01/25 16:27:27;;;;;;;84.88;60.03;;;;;;;;;;6240288;28;24670;-74
2024/01/25 16:30:29;;;;;;;84.40;58.60;;;;;;;;;;6238823;28;24825;-75
2024/01/25 16:33:30;;;;;;;82.28;58.55;;;;;;;;;;6240774;28;24467;-74
2024/01/25 16:36:34;;;;;;;84.75;59.10;;;;;;;;;;6240736;28;24682;-74
2024/01/25 16:39:36;;;;;;;81.07;57.90;;;;;;;;;;6238505;28;24432;-74
2024/01/25 16:42:38;;;;;;;81.70;57.30;;;;;;;;;;6244069;28;24832;-74
2024/01/25 16:45:40;;;;;;;84.25;57.95;;;;;;;;;;6238489;28;24603;-75
2024/01/25 16:48:42;;;;;;;82.93;58.43;;;;;;;;;;6243007;28;24752;-75
2024/01/25 16:51:45;;;;;;;86.20;59.10;;;;;;;;;;6241711;28;24420;-75
2024/01/25 16:54:47;;;;;;;84.05;58.88;;;;;;;;;;6240716;28;24424;-74
2024/01/25 16:57:49;;;;;;;88.97;61.40;;;;;;;;;;6242230;28;24439;-75
2024/01/25 17:00:53;;;;;;;88.35;61.35;;;;;;;;;;6241130;28;24630;-75
2024/01/25 17:03:55;;;;;;;85.03;59.45;;;;;;;;;;6239047;28;24425;-75
2024/01/25 17:06:58;;;;;;;88.15;60.08;;;;;;;;;;6243318;28;24508;-75
2024/01/25 17:10:00;;;;;;;83.07;58.72;;;;;;;;;;6239805;28;24626;-74
2024/01/25 17:13:02;;;;;;;86.88;61.17;;;;;;;;;;6242335;28;24478;-75
2024/01/25 17:16:04;;;;;;;89.70;61.80;;;;;;;;;;6242653;28;24447;-75
2024/01/25 17:19:07;;;;;;;93.53;62.47;;;;;;;;;;6243119;28;24438;-75
2024/01/25 17:22:10;;;;;;;87.28;60.35;;;;;;;;;;6243670;28;24427;-75
2024/01/25 17:25:11;;;;;;;86.07;59.30;;;;;;;;;;6241914;28;24431;-75
2024/01/25 17:28:13;;;;;;;86.05;60.65;;;;;;;;;;6243505;28;24426;-75
2024/01/25 17:31:14;;;;;;;91.20;62.67;;;;;;;;;;6244182;28;24533;-75
2024/01/25 17:34:16;;;;;;;87.90;61.67;;;;;;;;;;6240811;28;24428;-75
2024/01/25 17:37:21;;;;;;;86.25;60.40;;;;;;;;;;6237482;28;24829;-75
2024/01/25 17:40:23;;;;;;;88.88;60.42;;;;;;;;;;6242165;28;24428;-75